KPTW/PTW METAR and TAF weather

Enter ICAO airport designator
Station Type Date Time Source
KPTW METAR 2020/01/17 21:54 UTC NOAA

KPTW 172154Z AUTO 36006KT 10SM CLR M04/M17 A3070 RMK AO2 SLP396 T10391172


Station Type Date Time Source
KPTW Decoded METAR 2020/01/17 21:54 UTC NOAA

POTTSTOWN LIMERICK AIRPORT, PA, United States (KPTW) 40-14N 075-33W 89M
Jan 17, 2020 - 04:54 PM EST / 2020.01.17 2154 UTC
Wind: from the N (360 degrees) at 7 MPH (6 KT):0
Visibility: 10 mile(s):0
Sky conditions: clear
Temperature: 25.0 F (-3.9 C)
Windchill: 17 F (-8 C):1
Dew Point: 1.0 F (-17.2 C)
Relative Humidity: 34%
Pressure (altimeter): 30.7 in. Hg (1039 hPa)
ob: KPTW 172154Z AUTO 36006KT 10SM CLR M04/M17 A3070 RMK AO2 SLP396 T10391172
cycle: 22

Station Type Date Time Source
KPTW TAF UTC NOAA

Error!

Example: see airport list